createdAt,value
2023-01-29T00:02:49.103Z,3.7
2023-01-29T00:07:48.531Z,3.5
2023-01-29T00:12:47.696Z,4.0
2023-01-29T00:17:47.035Z,3.3
2023-01-29T00:22:46.400Z,3.4
2023-01-29T00:32:45.113Z,4.0
2023-01-29T00:37:44.447Z,2.7
2023-01-29T00:42:43.793Z,3.1
2023-01-29T00:47:43.125Z,3.4
2023-01-29T00:52:42.632Z,2.9
2023-01-29T00:57:41.831Z,3.0
2023-01-29T01:02:41.460Z,3.4
2023-01-29T01:07:40.771Z,2.5
2023-01-29T01:12:42.185Z,2.6
2023-01-29T01:17:39.249Z,2.3
2023-01-29T01:22:40.670Z,3.7
2023-01-29T01:27:37.959Z,2.7
2023-01-29T01:32:37.239Z,2.2
2023-01-29T01:37:36.708Z,2.4
2023-01-29T01:47:35.193Z,2.6
2023-01-29T01:52:34.551Z,3.0
2023-01-29T01:57:33.920Z,2.6
2023-01-29T02:02:33.119Z,2.9
2023-01-29T02:12:32.231Z,2.7
2023-01-29T02:17:31.156Z,2.9
2023-01-29T02:22:33.036Z,3.4
2023-01-29T02:27:29.869Z,2.8
2023-01-29T02:32:29.220Z,3.2
2023-01-29T02:37:28.514Z,2.9
2023-01-29T02:42:27.860Z,2.7
2023-01-29T02:47:27.190Z,3.6
2023-01-29T02:52:26.635Z,2.4
2023-01-29T02:57:25.903Z,2.0
2023-01-29T03:02:25.318Z,2.7
2023-01-29T03:07:26.524Z,2.9
2023-01-29T03:12:24.369Z,3.0
2023-01-29T03:17:23.150Z,2.9
2023-01-29T03:22:22.545Z,3.3
2023-01-29T03:27:22.075Z,2.4
2023-01-29T03:32:21.187Z,2.1
2023-01-29T03:37:20.549Z,2.3
2023-01-29T03:42:19.873Z,2.6
2023-01-29T03:47:19.185Z,3.5
2023-01-29T03:52:18.343Z,3.0
2023-01-29T04:02:17.044Z,2.4
2023-01-29T04:07:16.123Z,2.8
2023-01-29T04:12:15.472Z,2.3
2023-01-29T04:17:14.701Z,3.1
2023-01-29T04:22:14.119Z,3.5
2023-01-29T04:27:13.281Z,2.8
2023-01-29T04:32:12.593Z,2.6
2023-01-29T04:37:11.824Z,2.9
2023-01-29T04:42:11.196Z,2.8
2023-01-29T04:47:10.512Z,2.9
2023-01-29T04:52:09.764Z,3.3
2023-01-29T04:57:09.021Z,2.6
2023-01-29T05:02:08.443Z,2.9
2023-01-29T05:07:07.614Z,3.8
2023-01-29T05:12:06.984Z,2.6
2023-01-29T05:17:06.206Z,3.1
2023-01-29T05:22:05.496Z,2.6
2023-01-29T05:27:04.700Z,3.0
2023-01-29T05:32:06.547Z,2.9
2023-01-29T05:37:03.251Z,2.7
2023-01-29T05:42:02.488Z,3.2
2023-01-29T05:47:01.715Z,3.6
2023-01-29T05:57:00.275Z,3.5
2023-01-29T06:01:59.652Z,3.0
2023-01-29T06:06:58.814Z,2.9
2023-01-29T06:11:58.075Z,2.5
2023-01-29T06:16:57.393Z,3.6
2023-01-29T06:21:56.626Z,3.5
2023-01-29T06:26:55.957Z,2.9
2023-01-29T06:31:55.392Z,3.0
2023-01-29T06:36:54.838Z,3.5
2023-01-29T06:41:53.818Z,3.2
2023-01-29T06:46:53.109Z,4.1
2023-01-29T06:51:52.347Z,3.4
2023-01-29T06:56:51.767Z,2.7
2023-01-29T07:01:51.079Z,4.0
2023-01-29T07:06:50.400Z,2.5
2023-01-29T07:11:49.719Z,2.8
2023-01-29T07:16:49.073Z,2.6
2023-01-29T07:21:48.390Z,2.9
2023-01-29T07:26:47.791Z,2.2
2023-01-29T07:31:47.191Z,2.6
2023-01-29T07:36:46.515Z,2.4
2023-01-29T07:41:45.786Z,2.7
2023-01-29T07:46:45.083Z,2.2
2023-01-29T07:51:44.355Z,1.8
2023-01-29T07:56:43.720Z,2.2
2023-01-29T08:01:45.582Z,2.4
2023-01-29T08:06:42.424Z,3.4
2023-01-29T08:11:41.750Z,2.3
2023-01-29T08:16:41.163Z,3.2
2023-01-29T08:21:40.385Z,3.4
2023-01-29T08:26:39.799Z,2.6
2023-01-29T08:31:39.147Z,2.3
2023-01-29T08:36:38.396Z,2.8
2023-01-29T08:41:37.719Z,3.3
2023-01-29T08:46:39.090Z,3.2
2023-01-29T08:51:36.475Z,2.2
2023-01-29T08:56:35.864Z,2.0
2023-01-29T09:01:35.112Z,2.4
2023-01-29T09:11:36.341Z,3.3
2023-01-29T09:16:33.216Z,2.0
2023-01-29T09:21:32.538Z,3.0
2023-01-29T09:26:31.891Z,2.0
2023-01-29T09:31:31.365Z,1.9
2023-01-29T09:36:30.589Z,2.7
2023-01-29T09:41:29.930Z,1.9
2023-01-29T09:46:29.233Z,2.1
2023-01-29T09:56:28.043Z,1.8
2023-01-29T10:01:27.752Z,2.4
2023-01-29T10:06:26.813Z,2.1
2023-01-29T10:11:28.208Z,1.7
2023-01-29T10:16:25.638Z,1.2
2023-01-29T10:21:25.004Z,2.0
2023-01-29T10:26:24.539Z,2.2
2023-01-29T10:31:23.873Z,1.5
2023-01-29T10:36:23.220Z,1.4
2023-01-29T10:41:22.574Z,1.3
2023-01-29T10:46:22.053Z,1.8
2023-01-29T10:51:21.375Z,1.5
2023-01-29T10:56:23.138Z,1.4
2023-01-29T11:01:20.271Z,1.5
2023-01-29T11:06:19.525Z,1.6
2023-01-29T11:11:18.922Z,1.9
2023-01-29T11:16:18.387Z,1.6
2023-01-29T11:21:17.778Z,1.2
2023-01-29T11:26:17.262Z,1.5
2023-01-29T11:31:18.930Z,1.6
2023-01-29T11:41:15.441Z,1.5
2023-01-29T11:46:14.925Z,1.1
2023-01-29T11:51:14.311Z,1.5
2023-01-29T11:56:13.751Z,1.4
2023-01-29T12:01:13.243Z,1.0
2023-01-29T12:06:12.767Z,1.1
2023-01-29T12:16:11.744Z,1.9
2023-01-29T12:21:11.111Z,1.5
2023-01-29T12:26:10.681Z,1.4
2023-01-29T12:31:10.096Z,1.0
2023-01-29T12:36:10.920Z,1.2
2023-01-29T12:41:08.944Z,1.0
2023-01-29T12:46:08.429Z,1.6
2023-01-29T12:51:07.891Z,1.0
2023-01-29T13:06:06.330Z,0.8
2023-01-29T13:11:05.778Z,1.1
2023-01-29T13:16:05.564Z,0.6
2023-01-29T13:21:04.858Z,0.9
2023-01-29T13:26:04.442Z,0.8
2023-01-29T13:31:04.037Z,0.6
2023-01-29T13:41:03.000Z,0.7
2023-01-29T13:46:02.540Z,0.9
2023-01-29T13:51:04.553Z,0.7
2023-01-29T13:56:01.533Z,0.6
2023-01-29T14:01:01.314Z,0.5
2023-01-29T14:06:00.620Z,0.7
2023-01-29T14:15:59.733Z,1.1
2023-01-29T14:20:59.241Z,0.6
2023-01-29T14:30:58.496Z,0.8
2023-01-29T14:35:57.873Z,0.6
2023-01-29T14:40:57.485Z,0.7
2023-01-29T14:50:56.465Z,0.6
2023-01-29T14:55:55.982Z,0.9
2023-01-29T15:00:55.580Z,1.3
2023-01-29T15:05:55.072Z,1.5
2023-01-29T15:10:54.759Z,0.8
2023-01-29T15:15:54.250Z,1.5
2023-01-29T15:20:53.846Z,1.0
2023-01-29T15:30:52.900Z,1.2
2023-01-29T15:35:58.777Z,1.0
2023-01-29T15:40:51.886Z,1.1
2023-01-29T15:50:51.062Z,1.7
2023-01-29T15:55:50.512Z,0.8
2023-01-29T16:00:50.268Z,1.2
2023-01-29T16:05:49.754Z,0.7
2023-01-29T16:10:50.665Z,1.4
2023-01-29T16:15:48.696Z,1.1
2023-01-29T16:20:48.173Z,1.2
2023-01-29T16:25:47.572Z,1.8
2023-01-29T16:30:47.107Z,2.4
2023-01-29T16:35:48.632Z,1.2
2023-01-29T16:40:46.063Z,4.2
2023-01-29T16:45:45.492Z,2.3
2023-01-29T16:50:54.627Z,1.3
2023-01-29T16:55:44.443Z,10.2
2023-01-29T17:00:44.151Z,5.9
2023-01-29T17:05:43.393Z,2.3
2023-01-29T17:10:42.876Z,0.9
2023-01-29T17:15:42.295Z,0.8
2023-01-29T17:20:41.754Z,0.9
2023-01-29T17:25:41.113Z,8.8
2023-01-29T17:30:40.626Z,8.1
2023-01-29T17:35:39.948Z,17.3
2023-01-29T17:40:39.457Z,10.6
2023-01-29T17:45:38.835Z,5.7
2023-01-29T17:50:38.261Z,2.2
2023-01-29T17:55:37.673Z,1.6
2023-01-29T18:00:37.136Z,1.1
2023-01-29T18:05:36.556Z,1.5
2023-01-29T18:10:35.950Z,3.8
2023-01-29T18:15:35.279Z,3.7
2023-01-29T18:20:34.666Z,2.1
2023-01-29T18:25:34.002Z,1.5
2023-01-29T18:30:33.765Z,1.2
2023-01-29T18:35:32.897Z,1.4
2023-01-29T18:40:32.258Z,2.0
2023-01-29T18:45:33.855Z,1.3
2023-01-29T18:50:31.006Z,1.7
2023-01-29T18:55:30.243Z,1.5
2023-01-29T19:05:29.155Z,3.7
2023-01-29T19:10:28.308Z,4.7
2023-01-29T19:15:27.684Z,8.6
2023-01-29T19:20:26.975Z,6.7
2023-01-29T19:25:26.343Z,4.6
2023-01-29T19:30:25.874Z,4.7
2023-01-29T19:35:25.068Z,8.0
2023-01-29T19:40:24.400Z,20.9
2023-01-29T19:45:37.030Z,17.6
2023-01-29T19:55:22.631Z,27.5
2023-01-29T20:00:22.092Z,55.2
2023-01-29T20:05:21.453Z,164.1
2023-01-29T20:10:21.011Z,89.1
2023-01-29T20:15:20.290Z,226.8
2023-01-29T20:20:19.901Z,80.5
2023-01-29T20:25:19.198Z,244.1
2023-01-29T20:30:18.890Z,78.2
2023-01-29T20:35:18.201Z,134.6
2023-01-29T20:40:17.860Z,82.5
2023-01-29T20:45:17.007Z,43.7
2023-01-29T20:50:16.797Z,47.1
2023-01-29T20:55:15.907Z,43.6
2023-01-29T21:00:15.679Z,57.7
2023-01-29T21:05:14.780Z,109.9
2023-01-29T21:10:14.221Z,36.8
2023-01-29T21:15:13.909Z,8.5
2023-01-29T21:20:13.156Z,40.0
2023-01-29T21:25:12.698Z,13.5
2023-01-29T21:30:12.735Z,51.5
2023-01-29T21:35:11.615Z,20.3
2023-01-29T21:40:11.008Z,22.8
2023-01-29T21:45:10.491Z,23.9
2023-01-29T21:50:09.903Z,24.1
2023-01-29T21:55:09.429Z,17.2
2023-01-29T22:00:08.802Z,18.4
2023-01-29T22:05:17.597Z,21.4
2023-01-29T22:10:07.643Z,17.5
2023-01-29T22:15:07.093Z,5.1
2023-01-29T22:20:08.743Z,15.6
2023-01-29T22:25:06.103Z,9.0
2023-01-29T22:30:05.349Z,5.8
2023-01-29T22:35:04.739Z,16.2
2023-01-29T22:40:04.118Z,8.6
2023-01-29T22:45:03.604Z,9.5
2023-01-29T22:50:02.950Z,5.1
2023-01-29T22:55:02.327Z,5.8
2023-01-29T23:00:01.705Z,7.9
2023-01-29T23:05:01.117Z,7.5
2023-01-29T23:10:00.479Z,4.7
2023-01-29T23:14:59.903Z,5.2
2023-01-29T23:19:59.319Z,5.3
2023-01-29T23:24:58.707Z,6.8
2023-01-29T23:29:58.189Z,4.8
2023-01-29T23:34:57.653Z,5.8
2023-01-29T23:39:57.060Z,3.1
2023-01-29T23:44:56.519Z,2.7
2023-01-29T23:49:55.935Z,2.0
2023-01-29T23:54:55.390Z,1.8
2023-01-29T23:59:54.840Z,2.6
